Time;durP1;ratioP1;P1;durP2;ratioP2;P2;SDS_P1;SDS_P2;PMS_P1;PMS_P2;Temp;Humidity;BMP_temperature;BMP_pressure;BME280_temperature;BME280_humidity;BME280_pressure;Samples;Min_cycle;Max_cycle;Signal;HPM_P1;HPM_P2
2023/04/03 00:00:50;;;;;;;12.93;9.80;;;;;;;-0.61;90.25;102914.00;4880596;29;20037;-90
2023/04/03 00:03:19;;;;;;;12.90;10.23;;;;;;;-0.72;90.44;102900.44;4896252;29;20052;-89
2023/04/03 00:05:45;;;;;;;12.15;9.30;;;;;;;-0.70;90.67;102923.69;4896736;29;20071;-88
2023/04/03 00:08:11;;;;;;;16.50;12.23;;;;;;;-0.60;92.86;102926.09;4896356;29;20061;-88
2023/04/03 00:10:55;;;;;;;16.35;12.25;;;;;;;-0.59;95.19;102927.91;4883610;29;20075;-88
2023/04/03 00:13:21;;;;;;;17.00;12.63;;;;;;;-0.60;95.36;102930.38;4899012;29;20068;-83
2023/04/03 00:15:46;;;;;;;17.45;12.98;;;;;;;-0.56;95.42;102932.34;4899081;29;20150;-83
2023/04/03 00:18:12;;;;;;;17.38;12.77;;;;;;;-0.59;95.48;102927.91;4898839;29;20028;-83
2023/04/03 00:20:37;;;;;;;18.25;12.60;;;;;;;-0.63;95.73;102920.75;4883489;29;20063;-83
2023/04/03 00:23:03;;;;;;;13.73;10.15;;;;;;;-0.61;94.98;102926.00;4881575;29;20051;-83
2023/04/03 00:25:28;;;;;;;13.40;10.07;;;;;;;-0.65;94.40;102927.47;4867251;29;20048;-83
2023/04/03 00:27:54;;;;;;;12.15;10.10;;;;;;;-0.65;94.48;102921.44;4898324;29;20047;-83
2023/04/03 00:30:22;;;;;;;12.38;9.05;;;;;;;-0.63;94.17;102930.13;4905317;29;20044;-83
2023/04/03 00:32:51;;;;;;;11.30;9.00;;;;;;;-0.73;93.46;102923.50;4917556;29;20548;-84
2023/04/03 00:35:17;;;;;;;13.80;8.77;;;;;;;-0.74;92.72;102927.72;4915419;29;20111;-83
2023/04/03 00:37:44;;;;;;;10.23;8.88;;;;;;;-0.75;92.81;102936.28;4882122;29;20414;-83
2023/04/03 00:40:11;;;;;;;13.85;9.80;;;;;;;-0.79;92.25;102934.28;4894281;29;20052;-83
2023/04/03 00:42:37;;;;;;;12.52;9.88;;;;;;;-0.80;92.45;102936.75;4890931;29;20051;-83
2023/04/03 00:45:03;;;;;;;15.30;10.23;;;;;;;-0.84;92.17;102948.50;4902870;29;20420;-83
2023/04/03 00:47:30;;;;;;;14.25;9.90;;;;;;;-0.83;92.25;102950.28;4919984;29;20044;-83
2023/04/03 00:49:57;;;;;;;13.35;10.95;;;;;;;-0.85;92.55;102944.13;4920520;29;20123;-83
2023/04/03 00:52:28;;;;;;;14.00;9.70;;;;;;;-0.87;92.28;102945.72;4917586;29;20035;-83
2023/04/03 00:54:59;;;;;;;14.93;9.98;;;;;;;-0.85;92.45;102941.56;4934174;29;20040;-84
2023/04/03 00:57:26;;;;;;;13.18;9.82;;;;;;;-0.84;92.97;102943.34;4908410;29;20039;-84
2023/04/03 00:59:57;;;;;;;14.13;10.85;;;;;;;-0.78;92.87;102950.59;4920394;29;20058;-83
2023/04/03 01:02:22;;;;;;;15.02;10.80;;;;;;;-0.75;92.89;102950.81;4905371;29;20111;-83
2023/04/03 01:04:48;;;;;;;14.90;10.27;;;;;;;-0.81;92.92;102935.84;4902337;29;20481;-84
2023/04/03 01:07:23;;;;;;;15.40;10.70;;;;;;;-0.82;93.13;102934.06;4893348;29;20138;-83
2023/04/03 01:09:52;;;;;;;15.57;10.35;;;;;;;-0.72;93.00;102944.19;4905190;29;20350;-83
2023/04/03 01:12:20;;;;;;;13.00;10.15;;;;;;;-0.66;92.76;102950.53;4908012;29;20048;-83
2023/04/03 01:14:49;;;;;;;17.27;10.27;;;;;;;-0.68;93.17;102945.28;4901664;29;20063;-84
2023/04/03 01:17:36;;;;;;;15.63;10.63;;;;;;;-0.62;93.23;102949.97;4902632;29;20036;-84
2023/04/03 01:20:23;;;;;;;13.18;10.90;;;;;;;-0.55;93.46;102947.00;4909461;29;20481;-84
2023/04/03 01:22:55;;;;;;;14.02;9.90;;;;;;;-0.51;93.47;102949.00;4912555;29;20040;-84
2023/04/03 01:25:21;;;;;;;14.63;10.43;;;;;;;-0.47;92.97;102955.28;4916472;29;20416;-83
2023/04/03 01:27:47;;;;;;;14.63;10.45;;;;;;;-0.45;93.08;102945.97;4901360;29;20036;-83
2023/04/03 01:30:16;;;;;;;11.75;9.50;;;;;;;-0.44;92.93;102953.78;4885748;29;20067;-83
2023/04/03 01:32:42;;;;;;;13.43;10.35;;;;;;;-0.53;92.55;102940.31;4918922;29;20048;-83
2023/04/03 01:35:09;;;;;;;15.75;9.50;;;;;;;-0.42;92.55;102957.34;4919555;29;20496;-84
2023/04/03 01:37:34;;;;;;;12.35;9.48;;;;;;;-0.42;92.61;102949.63;4916577;29;20408;-84
2023/04/03 01:43:21;;;;;;;16.20;9.07;;;;;;;-0.38;91.60;102955.88;4907100;29;20063;-90
2023/04/03 01:45:49;;;;;;;13.18;9.98;;;;;;;-0.44;91.41;102940.03;4920900;29;20473;-90
2023/04/03 01:48:15;;;;;;;10.00;8.60;;;;;;;-0.45;91.55;102944.25;4905147;29;20400;-90
2023/04/03 01:50:41;;;;;;;13.70;8.95;;;;;;;-0.37;91.83;102949.94;4920004;29;20477;-90
2023/04/03 01:53:07;;;;;;;15.65;8.63;;;;;;;-0.34;91.46;102955.31;4914259;29;20036;-90
2023/04/03 01:55:33;;;;;;;14.93;8.18;;;;;;;-0.39;90.79;102944.69;4906372;29;20051;-90
2023/04/03 01:57:58;;;;;;;11.50;8.05;;;;;;;-0.44;91.05;102942.59;4904617;29;20385;-90
2023/04/03 02:00:26;;;;;;;12.18;8.70;;;;;;;-0.42;90.96;102941.88;4891726;29;20438;-90
2023/04/03 02:02:51;;;;;;;10.20;7.10;;;;;;;-0.50;90.70;102932.78;4901803;29;20103;-89
2023/04/03 02:05:17;;;;;;;11.15;7.68;;;;;;;-0.45;90.88;102935.66;4917701;29;20052;-91
2023/04/03 02:08:03;;;;;;;10.82;7.68;;;;;;;-0.37;90.40;102961.13;4901623;29;20036;-90
2023/04/03 02:10:50;;;;;;;11.88;6.85;;;;;;;-0.35;90.66;102956.97;4901306;29;20059;-90
2023/04/03 02:13:16;;;;;;;13.10;7.65;;;;;;;-0.38;91.02;102954.19;4906671;29;20123;-90
2023/04/03 02:15:42;;;;;;;10.35;7.13;;;;;;;-0.32;90.67;102958.84;4878324;29;20044;-90
2023/04/03 02:18:08;;;;;;;10.25;6.18;;;;;;;-0.29;90.70;102964.22;4920137;29;20050;-88
2023/04/03 02:20:33;;;;;;;13.40;6.78;;;;;;;-0.25;90.45;102966.19;4919790;29;20326;-89
2023/04/03 02:22:59;;;;;;;8.35;5.97;;;;;;;-0.30;90.45;102956.38;4908430;29;20055;-87
2023/04/03 02:25:25;;;;;;;8.98;5.75;;;;;;;-0.21;90.43;102967.31;4916901;29;20040;-90
2023/04/03 02:27:51;;;;;;;9.00;5.72;;;;;;;-0.18;90.45;102972.66;4902669;29;20040;-87
2023/04/03 02:30:17;;;;;;;9.90;6.10;;;;;;;-0.27;89.81;102960.06;4903592;29;20069;-87
2023/04/03 02:32:43;;;;;;;9.23;5.70;;;;;;;-0.17;89.55;102971.88;4919386;29;20035;-89
2023/04/03 02:35:10;;;;;;;9.85;5.70;;;;;;;-0.26;89.61;102956.72;4918076;29;20050;-87
2023/04/03 02:37:35;;;;;;;9.93;5.30;;;;;;;-0.28;90.22;102947.97;4912944;29;20093;-89
2023/04/03 02:40:23;;;;;;;8.30;5.40;;;;;;;-0.12;89.47;102979.91;4886018;29;20411;-89
2023/04/03 02:42:48;;;;;;;7.75;5.47;;;;;;;-0.21;90.29;102957.00;4900425;29;20040;-86
2023/04/03 02:45:14;;;;;;;8.18;5.20;;;;;;;-0.19;89.66;102963.16;4886865;29;20104;-85
2023/04/03 02:47:39;;;;;;;6.95;5.20;;;;;;;-0.06;89.52;102983.81;4919375;29;20043;-86
2023/04/03 02:50:08;;;;;;;8.05;4.85;;;;;;;-0.13;89.46;102976.47;4903301;29;20035;-86
2023/04/03 02:52:34;;;;;;;10.88;5.22;;;;;;;-0.07;89.76;102978.53;4903514;29;20479;-90
2023/04/03 02:54:59;;;;;;;10.70;4.70;;;;;;;-0.08;89.31;102977.63;4916309;29;20079;-87
2023/04/03 02:57:25;;;;;;;9.55;5.15;;;;;;;-0.07;89.14;102979.44;4900123;29;20082;-89
2023/04/03 02:59:50;;;;;;;8.35;4.25;;;;;;;-0.07;89.27;102986.25;4900442;29;20050;-88
2023/04/03 03:02:16;;;;;;;8.35;4.40;;;;;;;-0.08;88.61;102980.22;4905560;29;20051;-90
2023/04/03 03:04:42;;;;;;;8.02;4.47;;;;;;;-0.12;88.67;102983.38;4903393;29;20082;-90
2023/04/03 03:07:10;;;;;;;10.23;4.40;;;;;;;-0.20;88.71;102974.28;4903577;29;20391;-90
2023/04/03 03:09:36;;;;;;;8.40;4.53;;;;;;;-0.23;88.41;102967.22;4918530;29;20039;-90
2023/04/03 03:12:01;;;;;;;6.65;4.30;;;;;;;-0.21;88.70;102967.31;4911459;29;20043;-90
2023/04/03 03:14:26;;;;;;;9.32;4.20;;;;;;;-0.31;88.76;102954.63;4891996;29;20404;-90
2023/04/03 03:16:52;;;;;;;8.77;4.70;;;;;;;-0.15;88.65;102979.72;4918517;29;20067;-86
2023/04/03 03:19:17;;;;;;;8.75;4.55;;;;;;;-0.22;88.91;102975.84;4890005;29;20048;-90
2023/04/03 03:21:43;;;;;;;8.02;4.47;;;;;;;-0.15;88.79;102979.72;4885600;29;20102;-90
2023/04/03 03:24:11;;;;;;;9.75;4.72;;;;;;;-0.16;89.09;102978.81;4884780;29;20034;-86
2023/04/03 03:26:37;;;;;;;7.00;4.35;;;;;;;-0.19;88.46;102978.59;4900986;29;20051;-88
2023/04/03 03:29:02;;;;;;;8.27;4.55;;;;;;;-0.21;88.37;102988.81;4902707;29;20050;-90
2023/04/03 03:31:48;;;;;;;8.88;4.53;;;;;;;-0.19;88.41;102987.25;4902713;29;20062;-90
2023/04/03 03:34:13;;;;;;;7.43;4.22;;;;;;;-0.18;88.81;102988.13;4901453;29;20028;-89
2023/04/03 03:36:39;;;;;;;7.07;4.00;;;;;;;-0.20;88.23;102987.16;4888059;29;20046;-90
2023/04/03 03:39:05;;;;;;;7.93;4.50;;;;;;;-0.31;88.26;102981.25;4918353;29;20042;-90
2023/04/03 03:41:30;;;;;;;8.80;3.85;;;;;;;-0.24;88.11;102990.31;4923648;29;20514;-90
2023/04/03 03:43:56;;;;;;;7.80;4.28;;;;;;;-0.26;87.91;102994.44;4885315;29;20422;-89
2023/04/03 03:46:22;;;;;;;9.75;3.90;;;;;;;-0.29;88.20;103004.56;4899730;29;20059;-89
2023/04/03 03:48:47;;;;;;;6.32;3.75;;;;;;;-0.33;88.40;103008.63;4899738;29;20044;-90
2023/04/03 03:51:15;;;;;;;7.15;3.92;;;;;;;-0.51;87.91;102974.75;4900738;29;20107;-90
2023/04/03 03:53:41;;;;;;;7.18;3.60;;;;;;;-0.42;88.29;102998.56;4900854;29;20076;-89
2023/04/03 03:56:06;;;;;;;8.43;4.18;;;;;;;-0.46;87.78;103001.75;4909522;29;20070;-89
2023/04/03 03:58:32;;;;;;;7.50;3.75;;;;;;;-0.64;88.50;102979.88;4918052;29;20062;-89
2023/04/03 04:01:05;;;;;;;6.88;3.60;;;;;;;-0.61;88.45;102993.84;4903033;29;20048;-89
2023/04/03 04:03:31;;;;;;;7.90;3.80;;;;;;;-0.59;88.74;102999.09;4899421;29;20158;-90
2023/04/03 04:05:56;;;;;;;8.70;3.70;;;;;;;-0.66;88.46;103000.38;4925721;29;20043;-89
2023/04/03 04:08:23;;;;;;;11.70;4.18;;;;;;;-0.60;89.01;103016.25;4902447;29;20456;-89
2023/04/03 04:10:49;;;;;;;8.32;3.83;;;;;;;-0.77;88.86;102989.31;4917978;29;20036;-89
2023/04/03 04:13:14;;;;;;;8.82;4.15;;;;;;;-0.64;88.80;103024.53;4899705;29;20048;-90
2023/04/03 04:15:40;;;;;;;9.50;3.97;;;;;;;-0.71;88.67;103010.34;4883514;29;20067;-90
2023/04/03 04:18:05;;;;;;;8.52;4.45;;;;;;;-0.73;88.87;103017.06;4881728;29;20044;-90
2023/04/03 04:20:32;;;;;;;9.13;4.07;;;;;;;-0.82;89.24;103003.56;4899672;29;20123;-88
2023/04/03 04:22:57;;;;;;;6.88;3.75;;;;;;;-0.79;88.75;103013.16;4887067;29;20048;-89
2023/04/03 04:25:23;;;;;;;6.95;3.53;;;;;;;-0.81;89.15;103007.91;4887224;29;20444;-90
2023/04/03 04:27:48;;;;;;;8.15;3.80;;;;;;;-0.85;89.32;103010.19;4902354;29;20100;-89
2023/04/03 04:30:14;;;;;;;12.02;4.03;;;;;;;-0.79;89.48;103019.22;4886617;29;20489;-89
2023/04/03 04:32:39;;;;;;;8.07;3.53;;;;;;;-0.82;89.61;103019.03;4902083;29;20036;-89
2023/04/03 04:35:05;;;;;;;9.23;4.22;;;;;;;-0.92;89.78;103004.59;4902285;29;20047;-89
2023/04/03 04:37:31;;;;;;;7.68;3.75;;;;;;;-0.93;90.30;102997.66;4897694;29;20416;-88
2023/04/03 04:39:56;;;;;;;7.82;3.53;;;;;;;-0.86;90.12;102999.00;4907736;29;20056;-87
2023/04/03 04:42:22;;;;;;;8.13;3.22;;;;;;;-0.77;89.83;103014.19;4887412;29;20131;-86
2023/04/03 04:44:47;;;;;;;6.30;3.70;;;;;;;-0.76;90.11;103021.09;4886777;29;20059;-85
2023/04/03 04:47:13;;;;;;;9.95;3.60;;;;;;;-0.74;90.03;103028.16;4903633;29;20067;-87
2023/04/03 04:49:38;;;;;;;9.60;3.42;;;;;;;-0.73;90.10;103029.94;4888078;29;20080;-84
2023/04/03 04:52:04;;;;;;;6.55;3.17;;;;;;;-0.71;90.16;103030.06;4915212;29;20059;-87
2023/04/03 04:54:29;;;;;;;8.10;3.17;;;;;;;-0.76;89.62;103019.44;4886615;29;20559;-84
2023/04/03 04:56:55;;;;;;;5.40;3.38;;;;;;;-0.74;89.77;103019.53;4886146;29;20632;-85
2023/04/03 04:59:20;;;;;;;7.95;3.08;;;;;;;-0.67;89.61;103036.31;4891349;29;20515;-89
2023/04/03 05:01:46;;;;;;;7.50;3.22;;;;;;;-0.70;89.79;103043.03;4885866;29;20049;-88
2023/04/03 05:04:12;;;;;;;7.65;3.10;;;;;;;-0.73;89.65;103031.63;4893169;29;20036;-86
2023/04/03 05:06:38;;;;;;;6.55;3.40;;;;;;;-0.75;89.35;103034.09;4887602;29;20389;-83
2023/04/03 05:09:03;;;;;;;7.25;3.33;;;;;;;-0.76;90.06;103028.81;4909301;29;20115;-87
2023/04/03 05:11:29;;;;;;;8.63;3.45;;;;;;;-0.75;89.90;103031.53;4910344;29;20102;-87
2023/04/03 05:13:55;;;;;;;5.55;3.50;;;;;;;-0.74;89.47;103035.88;4904246;29;20075;-86
2023/04/03 05:16:21;;;;;;;6.75;3.08;;;;;;;-0.66;89.36;103041.56;4883041;29;20052;-88
2023/04/03 05:18:46;;;;;;;9.43;3.20;;;;;;;-0.71;89.22;103035.19;4907267;29;20423;-83
2023/04/03 05:21:32;;;;;;;5.13;2.92;;;;;;;-0.65;89.12;103039.88;4903580;29;20139;-85
2023/04/03 05:24:02;;;;;;;9.80;2.92;;;;;;;-0.67;88.77;103047.50;4898040;29;20063;-86
2023/04/03 05:26:29;;;;;;;6.65;3.03;;;;;;;-0.66;88.90;103049.31;4898293;29;20040;-83
2023/04/03 05:28:55;;;;;;;6.13;3.20;;;;;;;-0.65;89.14;103045.03;4901131;29;20396;-82
2023/04/03 05:31:20;;;;;;;8.20;3.78;;;;;;;-0.61;88.51;103045.34;4885294;29;20051;-84
2023/04/03 05:33:46;;;;;;;8.23;3.00;;;;;;;-0.60;88.73;103043.69;4883748;29;20363;-87
2023/04/03 05:36:12;;;;;;;11.35;3.42;;;;;;;-0.52;87.93;103050.25;4883923;29;20040;-83
2023/04/03 05:38:38;;;;;;;5.75;3.20;;;;;;;-0.48;88.17;103052.25;4885289;29;20496;-84
2023/04/03 05:41:04;;;;;;;7.57;3.13;;;;;;;-0.44;87.75;103051.66;4888901;29;20055;-85
2023/04/03 05:43:30;;;;;;;6.70;3.08;;;;;;;-0.43;87.88;103053.47;4900338;29;20144;-83
2023/04/03 05:45:55;;;;;;;6.93;3.17;;;;;;;-0.36;87.52;103055.69;4892553;29;20509;-87
2023/04/03 05:48:21;;;;;;;7.13;2.95;;;;;;;-0.33;87.46;103060.16;4894733;29;20041;-83
2023/04/03 05:50:47;;;;;;;9.45;3.45;;;;;;;-0.28;87.36;103063.03;4892834;29;20131;-83
2023/04/03 05:53:19;;;;;;;8.65;3.20;;;;;;;-0.25;87.02;103063.25;4908465;29;20119;-83
2023/04/03 05:55:45;;;;;;;7.53;3.08;;;;;;;-0.18;86.46;103070.59;4903383;29;20047;-84
2023/04/03 05:58:11;;;;;;;7.25;2.75;;;;;;;-0.12;86.62;103071.00;4897179;29;20401;-84
2023/04/03 06:00:38;;;;;;;5.20;3.00;;;;;;;-0.05;86.04;103077.47;4894298;29;20381;-84
2023/04/03 06:03:04;;;;;;;4.57;2.90;;;;;;;0.01;85.65;103075.31;4904137;29;20040;-83
2023/04/03 06:05:29;;;;;;;8.18;3.00;;;;;;;0.10;85.68;103077.59;4889346;29;20483;-83
2023/04/03 06:07:56;;;;;;;7.60;2.92;;;;;;;0.16;85.28;103073.75;4900769;29;20055;-86
2023/04/03 06:10:22;;;;;;;6.78;2.60;;;;;;;0.26;85.56;103064.97;4893077;29;20042;-84
2023/04/03 06:12:48;;;;;;;10.02;3.10;;;;;;;0.43;85.25;103083.22;4908476;29;20044;-84
2023/04/03 06:15:13;;;;;;;8.65;3.05;;;;;;;0.60;84.59;103077.47;4895507;29;20130;-85
2023/04/03 06:17:38;;;;;;;7.45;2.75;;;;;;;0.86;84.45;103070.53;4905885;29;20493;-87
2023/04/03 06:20:04;;;;;;;5.80;3.00;;;;;;;1.15;83.40;103086.97;4895131;29;20047;-85
2023/04/03 06:22:30;;;;;;;5.95;2.90;;;;;;;1.40;81.86;103075.59;4891874;29;20047;-83
2023/04/03 06:24:56;;;;;;;8.80;2.92;;;;;;;1.67;81.70;103076.41;4892529;29;20046;-84
2023/04/03 06:27:22;;;;;;;10.57;2.90;;;;;;;1.84;80.60;103086.06;4876959;29;20115;-84
2023/04/03 06:29:48;;;;;;;5.55;2.47;;;;;;;2.18;81.60;103082.00;4877336;29;20139;-86
2023/04/03 06:32:14;;;;;;;6.53;2.55;;;;;;;2.47;78.62;103085.38;4905387;29;20122;-86
2023/04/03 06:34:41;;;;;;;5.38;2.13;;;;;;;2.63;75.92;103080.31;4892282;29;20410;-84
2023/04/03 06:37:14;;;;;;;7.53;2.63;;;;;;;2.86;75.28;103089.38;4889982;29;20460;-84
2023/04/03 06:39:40;;;;;;;5.50;2.20;;;;;;;3.15;76.43;103091.75;4906124;29;20464;-89
2023/04/03 06:42:05;;;;;;;6.55;2.30;;;;;;;3.37;73.79;103084.34;4889918;29;20042;-86
2023/04/03 06:44:33;;;;;;;7.22;2.53;;;;;;;3.47;73.25;103098.72;4892330;29;20038;-85
2023/04/03 06:46:59;;;;;;;8.13;2.42;;;;;;;3.80;74.14;103089.22;4924099;29;20036;-86
2023/04/03 06:49:25;;;;;;;7.38;2.45;;;;;;;4.00;72.72;103099.75;4906112;29;20460;-84
2023/04/03 06:51:51;;;;;;;5.90;2.25;;;;;;;4.23;71.77;103095.75;4892167;29;20087;-86
2023/04/03 06:54:17;;;;;;;5.40;2.22;;;;;;;4.30;69.33;103100.44;4895559;29;20036;-86
2023/04/03 06:56:42;;;;;;;7.60;2.42;;;;;;;4.61;70.31;103101.06;4909378;29;20048;-85
2023/04/03 06:59:10;;;;;;;4.80;2.17;;;;;;;4.83;68.69;103100.41;4895984;29;20065;-87
2023/04/03 07:01:35;;;;;;;5.60;1.92;;;;;;;4.92;66.82;103100.84;4904603;29;20032;-84
2023/04/03 07:04:01;;;;;;;7.93;2.65;;;;;;;5.02;65.81;103097.84;4910035;29;20043;-84
2023/04/03 07:06:26;;;;;;;5.13;2.10;;;;;;;5.37;66.85;103110.72;4891661;29;20504;-88
2023/04/03 07:08:52;;;;;;;4.75;2.33;;;;;;;5.22;64.67;103094.44;4909890;29;20341;-83
2023/04/03 07:11:20;;;;;;;5.45;2.33;;;;;;;5.47;66.07;103120.72;4909818;29;20037;-87
2023/04/03 07:13:45;;;;;;;6.35;2.63;;;;;;;5.74;63.39;103112.41;4880525;29;20058;-83
2023/04/03 07:16:11;;;;;;;6.43;2.47;;;;;;;5.88;63.99;103102.63;4893060;29;20384;-84
2023/04/03 07:18:37;;;;;;;5.03;2.20;;;;;;;5.87;62.80;103087.81;4891822;29;20027;-84
2023/04/03 07:21:03;;;;;;;6.32;2.40;;;;;;;6.09;61.76;103118.28;4893699;29;20102;-84
2023/04/03 07:23:28;;;;;;;6.63;2.17;;;;;;;6.47;63.10;103126.84;4924397;29;20431;-84
2023/04/03 07:25:55;;;;;;;6.53;2.42;;;;;;;6.66;63.33;103105.06;4893107;29;20047;-84
2023/04/03 07:28:22;;;;;;;5.13;2.30;;;;;;;6.47;59.78;103120.78;4908176;29;20154;-85
2023/04/03 07:30:53;;;;;;;10.88;2.55;;;;;;;6.66;59.77;103128.50;4889540;29;20460;-85
2023/04/03 07:33:21;;;;;;;5.22;2.10;;;;;;;6.78;59.48;103128.13;4907309;29;20099;-85
2023/04/03 07:35:47;;;;;;;11.70;2.85;;;;;;;6.90;59.34;103125.13;4916235;29;20052;-83
2023/04/03 07:38:12;;;;;;;4.22;2.00;;;;;;;7.10;58.69;103133.75;4922793;29;20044;-85
2023/04/03 07:40:38;;;;;;;6.70;2.30;;;;;;;7.07;57.54;103138.84;4916662;29;20082;-84
2023/04/03 07:43:05;;;;;;;5.10;2.20;;;;;;;7.09;56.95;103145.00;4902937;29;20044;-85
2023/04/03 07:45:33;;;;;;;5.45;2.38;;;;;;;7.29;59.86;103135.34;4919941;29;20043;-83
2023/04/03 07:47:58;;;;;;;6.63;2.55;;;;;;;7.43;58.54;103136.75;4898247;29;20050;-84
2023/04/03 07:50:27;;;;;;;4.90;2.25;;;;;;;7.51;59.69;103137.03;4900124;29;20032;-84
2023/04/03 07:52:54;;;;;;;7.70;2.20;;;;;;;7.57;57.13;103137.28;4929224;29;20062;-85
2023/04/03 07:55:20;;;;;;;5.55;1.92;;;;;;;7.44;54.92;103146.38;4901968;29;20071;-82
2023/04/03 07:57:45;;;;;;;7.75;2.28;;;;;;;7.53;56.04;103139.69;4910415;29;20075;-83
2023/04/03 08:00:12;;;;;;;6.65;2.20;;;;;;;7.61;55.22;103138.28;4876862;29;20103;-85
2023/04/03 08:02:37;;;;;;;5.10;2.25;;;;;;;7.53;55.55;103135.41;4886768;29;20044;-84
2023/04/03 08:05:03;;;;;;;4.50;1.83;;;;;;;7.43;55.16;103133.28;4891215;29;20408;-83
2023/04/03 08:07:28;;;;;;;5.97;2.03;;;;;;;7.20;54.48;103146.31;4906123;29;20059;-86
2023/04/03 08:09:54;;;;;;;5.85;1.80;;;;;;;7.05;56.06;103124.84;4886877;29;20044;-84
2023/04/03 08:12:19;;;;;;;5.25;2.10;;;;;;;7.19;54.62;103144.53;4871995;29;20048;-85
2023/04/03 08:14:45;;;;;;;5.75;1.90;;;;;;;7.29;55.83;103145.78;4887352;29;20040;-84
2023/04/03 08:17:13;;;;;;;3.97;1.95;;;;;;;7.42;56.45;103148.03;4894126;29;20139;-83
2023/04/03 08:19:57;;;;;;;5.00;2.15;;;;;;;7.60;55.43;103147.84;4916823;29;20102;-84
2023/04/03 08:22:23;;;;;;;5.68;1.67;;;;;;;7.27;53.19;103144.84;4916752;29;20139;-84
2023/04/03 08:24:48;;;;;;;3.90;1.77;;;;;;;7.11;52.51;103143.31;4912092;29;20135;-83
2023/04/03 08:27:16;;;;;;;4.32;1.70;;;;;;;7.09;53.22;103134.56;4907360;29;20531;-85
2023/04/03 08:29:42;;;;;;;4.13;1.67;;;;;;;7.32;53.00;103153.72;4910266;29;20044;-83
2023/04/03 08:32:07;;;;;;;7.45;2.17;;;;;;;7.35;53.90;103146.00;4907396;29;20369;-84
2023/04/03 08:34:36;;;;;;;7.20;2.00;;;;;;;7.63;52.04;103153.16;4894340;29;20040;-84
2023/04/03 08:37:02;;;;;;;6.10;1.73;;;;;;;7.86;52.36;103147.91;4876302;29;20493;-82
2023/04/03 08:39:28;;;;;;;6.90;1.83;;;;;;;7.76;51.00;103138.84;4921949;29;20032;-84
2023/04/03 08:41:59;;;;;;;5.70;2.05;;;;;;;7.83;50.16;103150.41;4925530;29;20052;-85
2023/04/03 08:44:25;;;;;;;5.47;1.95;;;;;;;8.12;50.73;103158.41;4912895;29;20080;-84
2023/04/03 08:47:08;;;;;;;4.57;2.28;;;;;;;8.28;48.16;103159.84;4908603;29;20048;-85
2023/04/03 08:49:37;;;;;;;5.75;1.70;;;;;;;8.42;47.85;103158.59;4917369;29;20032;-86
2023/04/03 08:52:09;;;;;;;3.35;1.48;;;;;;;8.39;46.58;103152.34;4911748;29;20525;-83
2023/04/03 08:54:41;;;;;;;4.60;2.00;;;;;;;8.60;48.60;103152.25;4923598;29;20671;-83
2023/04/03 08:57:07;;;;;;;4.80;1.75;;;;;;;8.62;48.18;103150.56;4901298;29;20043;-82
2023/04/03 08:59:36;;;;;;;3.65;1.63;;;;;;;8.64;47.53;103149.78;4893152;29;20091;-84
2023/04/03 09:02:16;;;;;;;6.22;1.80;;;;;;;8.63;46.02;103158.47;4898419;29;20040;-84
2023/04/03 09:04:42;;;;;;;2.67;1.38;;;;;;;8.59;46.31;103153.97;4918650;29;20067;-83
2023/04/03 09:07:19;;;;;;;4.97;2.08;;;;;;;8.27;43.43;103150.22;4906358;29;20083;-84
2023/04/03 09:10:03;;;;;;;4.95;1.05;;;;;;;7.90;42.51;103161.97;4908566;29;20054;-87
2023/04/03 09:13:10;;;;;;;5.78;1.33;;;;;;;7.68;44.51;103161.16;4926273;29;20476;-83
2023/04/03 09:15:36;;;;;;;2.40;1.08;;;;;;;7.66;44.20;103161.94;4924788;29;20031;-84
2023/04/03 09:18:10;;;;;;;3.42;1.13;;;;;;;7.42;42.94;103174.09;4889369;29;20392;-84
2023/04/03 09:20:39;;;;;;;5.22;1.17;;;;;;;7.34;42.23;103164.19;4920702;29;20050;-85
2023/04/03 09:23:30;;;;;;;3.22;1.15;;;;;;;7.40;47.05;103167.06;4917651;29;20048;-83
2023/04/03 09:26:19;;;;;;;2.10;0.95;;;;;;;7.61;42.99;103175.72;4908253;29;20039;-85
2023/04/03 09:28:45;;;;;;;2.08;1.00;;;;;;;7.62;41.59;103168.78;4902754;29;20028;-84
2023/04/03 09:31:27;;;;;;;3.95;1.02;;;;;;;7.49;40.36;103170.03;4892583;29;20397;-83
2023/04/03 09:33:59;;;;;;;2.30;1.00;;;;;;;7.41;38.30;103176.66;4927883;29;20039;-85
2023/04/03 09:37:05;;;;;;;4.90;1.27;;;;;;;7.40;41.78;103169.69;4926535;29;20392;-85
2023/04/03 09:39:32;;;;;;;2.53;0.77;;;;;;;7.19;39.71;103181.03;4896143;29;20476;-83
2023/04/03 09:42:02;;;;;;;3.95;1.00;;;;;;;7.14;43.25;103160.81;4920168;29;20507;-82
2023/04/03 09:44:38;;;;;;;2.53;1.00;;;;;;;7.34;42.75;103151.16;4905311;29;20358;-83
2023/04/03 09:47:25;;;;;;;1.90;0.80;;;;;;;7.37;40.73;103149.56;4919154;29;20162;-85
2023/04/03 09:50:19;;;;;;;2.00;0.77;;;;;;;7.44;39.67;103155.91;4913421;29;20723;-83
2023/04/03 09:52:51;;;;;;;2.33;0.93;;;;;;;7.36;42.49;103149.53;4915512;29;20044;-85
2023/04/03 09:55:29;;;;;;;1.83;0.90;;;;;;;7.23;43.09;103146.44;4916590;29;20091;-83
2023/04/03 09:57:58;;;;;;;5.22;0.88;;;;;;;7.01;41.76;103141.19;4915415;29;20071;-82
2023/04/03 10:00:36;;;;;;;2.25;0.82;;;;;;;7.12;40.36;103139.91;4921082;29;20107;-84
2023/04/03 10:03:02;;;;;;;1.40;0.60;;;;;;;7.20;41.45;103137.59;4900526;29;20040;-82
2023/04/03 10:05:36;;;;;;;4.55;0.80;;;;;;;7.18;40.47;103140.13;4918611;29;20055;-83
2023/04/03 10:08:15;;;;;;;1.92;0.75;;;;;;;7.22;40.73;103129.00;4916924;29;20043;-83
2023/04/03 10:10:41;;;;;;;3.22;0.93;;;;;;;7.12;38.34;103121.66;4912358;29;20040;-84
2023/04/03 10:13:16;;;;;;;2.83;0.70;;;;;;;7.29;41.60;103125.78;4914999;29;20050;-83
2023/04/03 10:15:52;;;;;;;2.38;0.70;;;;;;;7.43;38.92;103117.63;4900117;29;20157;-84
2023/04/03 10:18:42;;;;;;;1.88;0.70;;;;;;;7.33;38.46;103110.28;4914843;29;20119;-84
2023/04/03 10:21:30;;;;;;;2.08;0.77;;;;;;;7.37;37.14;103125.19;4900409;29;20493;-86
2023/04/03 10:24:21;;;;;;;1.92;0.57;;;;;;;7.53;39.98;103129.28;4899743;29;20040;-83
2023/04/03 10:26:58;;;;;;;2.03;0.70;;;;;;;7.59;37.14;103116.47;4904749;29;20504;-85
2023/04/03 10:29:53;;;;;;;2.33;0.77;;;;;;;7.69;40.34;103121.19;4934928;29;20399;-82
2023/04/03 10:32:31;;;;;;;2.90;0.70;;;;;;;7.67;37.86;103124.56;4902532;29;20058;-83
2023/04/03 10:35:08;;;;;;;1.33;0.50;;;;;;;7.43;35.76;103122.84;4915966;29;20176;-86
2023/04/03 10:37:50;;;;;;;1.20;0.60;;;;;;;7.33;38.67;103105.94;4899794;29;20040;-81
2023/04/03 10:40:24;;;;;;;0.63;0.50;;;;;;;7.27;36.73;103108.31;4899807;29;20039;-83
2023/04/03 10:42:57;;;;;;;1.38;0.63;;;;;;;7.28;37.32;103097.03;4899699;29;20047;-83
2023/04/03 10:45:27;;;;;;;1.85;0.68;;;;;;;7.34;37.63;103099.91;4903083;29;20032;-84
2023/04/03 10:48:11;;;;;;;2.33;0.70;;;;;;;7.40;37.96;103086.22;4904658;29;20071;-82
2023/04/03 10:50:42;;;;;;;1.70;0.80;;;;;;;7.51;37.71;103090.06;4905896;29;20039;-83
2023/04/03 10:53:32;;;;;;;2.17;0.82;;;;;;;7.46;36.11;103086.44;4898928;29;20060;-83
2023/04/03 10:56:32;;;;;;;1.17;0.50;;;;;;;7.32;40.02;103083.28;4921802;29;20078;-81
2023/04/03 10:59:29;;;;;;;3.15;1.15;;;;;;;7.38;37.81;103077.41;4921052;29;20292;-82
2023/04/03 11:02:04;;;;;;;2.22;0.75;;;;;;;7.48;40.24;103065.63;4921652;29;20078;-81
2023/04/03 11:04:34;;;;;;;1.08;0.70;;;;;;;7.76;36.14;103085.78;4903992;29;20115;-82
2023/04/03 11:07:38;;;;;;;1.77;0.82;;;;;;;7.92;39.13;103071.53;4919457;29;20075;-82
2023/04/03 11:10:13;;;;;;;2.97;0.57;;;;;;;7.87;36.10;103080.91;4905916;29;20039;-81
2023/04/03 11:12:46;;;;;;;2.85;1.05;;;;;;;7.77;36.29;103077.09;4923984;29;20028;-86
2023/04/03 11:15:16;;;;;;;2.33;1.00;;;;;;;7.76;38.06;103070.13;4908112;29;20102;-85
2023/04/03 11:18:05;;;;;;;1.30;0.60;;;;;;;7.89;37.46;103069.72;4932528;29;20495;-84
2023/04/03 11:20:34;;;;;;;2.28;0.80;;;;;;;8.04;38.67;103065.84;4900671;29;20488;-87
2023/04/03 11:23:25;;;;;;;3.22;0.90;;;;;;;8.30;34.92;103077.19;4899106;29;20119;-84
2023/04/03 11:25:54;;;;;;;1.55;0.65;;;;;;;8.30;38.50;103058.88;4915302;29;20040;-85
2023/04/03 11:28:20;;;;;;;4.50;0.50;;;;;;;8.11;34.54;103066.09;4914387;29;20040;-84
2023/04/03 11:30:49;;;;;;;1.95;0.60;;;;;;;8.05;35.68;103051.97;4898903;29;20044;-85
2023/04/03 11:33:39;;;;;;;2.03;0.73;;;;;;;8.18;34.69;103035.00;4913800;29;20040;-85
2023/04/03 11:36:17;;;;;;;2.60;0.70;;;;;;;8.14;33.48;103047.03;4914934;29;20043;-85
2023/04/03 11:38:45;;;;;;;3.05;0.70;;;;;;;8.12;33.69;103053.97;4913203;29;20036;-86
2023/04/03 11:41:14;;;;;;;1.73;0.60;;;;;;;8.06;33.36;103046.78;4899048;29;20123;-84